Ana Sayfa
METAR-TAF:

METAR-TAF

Havaalanları :

Mürted Hava Üssü

Akıncı, Türkiye

Enlem: 40-05N, Boylam: 032-34E, yükseklik: 843 m

Güncel hava durumu gözlemi

Rapor saat 21:00 UTC de 12 saat ve 48 dakika önce yapıldı.
Rüzgar kuzey/kuzeydoğudan 1 kt
Sıcaklık 7°C
Nem 87%
Basınç 1019 hPa
Görüş mesafesi 10 km veya daha fazla
3500 ft yükseklikte parçalı çok bulutlu
9000 ft yükseklikte parçalı çok bulutlu
hafif sağanak yağmurlar

METAR: LTAE 182100Z 03001KT 9999 -SHRA BKN035 BKN090 07/05 Q1019 NOSIG RMK RWY21 06003KT

Saat: 12:48 (09:48 UTC)

Tahmin

Rapor saat 07:40 UTC de 2 saat ve 8 dakika önce yapıldı.
Ayın 19'si saat 09 UTC'den ayın 19'si saat 18 UTC'ye kadar geçerli Tahmin
Rüzgar değişken yönden 2 kt
Görüş mesafesi 10 km veya daha fazla
4000 ft yükseklikte parçalı bulutlu
10000 ft yükseklikte parçalı bulutlu

TAF: LTAE 190740Z 1909/1918 VRB02KT 9999 SCT040 SCT100

4.000'den fazla havaalanı için hava durumu gözlemleri ve tahminleri (METAR ve TAF raporları).

Kullanılabilir istasyonlar harita üzerinde sarı ve kırmızı noktalarla gösterilir.

İstasyonun adını görmek için fareyi noktanın üzerinde gezdirin.

Sonrasında hava gözlem ve tahminlerini görmek için tıklayın.

Haritayı değiştirmek için: yaklaştırmak için siyah artı işaretli yeşil düğmeye ve uzaklaştırmak için de eksi işaretli düğmeye hızla tıklayın; bitişik haritalar için yeşil okları kullanın.


METAR-TAF: